createdAt,value
2019-02-27T05:03:54.021Z,102721.87
2019-02-27T05:07:54.271Z,102721.15
2019-02-27T05:11:21.518Z,102721.15
2019-02-27T05:14:50.392Z,102713.17
2019-02-27T05:18:19.295Z,102711.4
2019-02-27T05:21:47.203Z,102709.4
2019-02-27T05:25:17.086Z,102706.5
2019-02-27T05:28:44.990Z,102710.62
2019-02-27T05:32:12.908Z,102706.26
2019-02-27T05:35:41.824Z,102699.31
2019-02-27T05:39:09.714Z,102704.09
2019-02-27T05:42:40.603Z,102696.79
2019-02-27T05:46:08.532Z,102687.89
2019-02-27T05:49:37.421Z,102693.25
2019-02-27T05:53:06.340Z,102685.09
2019-02-27T05:56:35.272Z,102682.36
2019-02-27T06:00:04.138Z,102685.9
2019-02-27T06:03:33.056Z,102687.06
2019-02-27T06:07:00.983Z,102685.32
2019-02-27T06:10:28.869Z,102680.02
2019-02-27T06:13:56.831Z,102678.58
2019-02-27T06:17:24.765Z,102668.39
2019-02-27T06:20:52.649Z,102673.08
2019-02-27T06:24:20.595Z,102663.46
2019-02-27T06:27:48.522Z,102670.85
2019-02-27T06:31:16.424Z,102675.07
2019-02-27T06:34:44.385Z,102670.92
2019-02-27T06:38:12.322Z,102672.06
2019-02-27T06:41:41.218Z,102665.71
2019-02-27T06:45:12.726Z,102670.12
2019-02-27T06:48:43.464Z,102664.38
2019-02-27T06:52:11.277Z,102667
2019-02-27T06:55:39.189Z,102662.64
2019-02-27T06:59:07.121Z,102655.28
2019-02-27T07:02:35.064Z,102657.1
2019-02-27T07:06:02.954Z,102649.15
2019-02-27T07:09:30.962Z,102635.07
2019-02-27T07:12:58.921Z,102629.2
2019-02-27T07:16:26.825Z,102633.78
2019-02-27T07:19:54.790Z,102636.22
2019-02-27T07:23:24.674Z,102629.55
2019-02-27T07:26:52.609Z,102621.31
2019-02-27T07:30:20.514Z,102614.44
2019-02-27T07:33:49.449Z,102613.25
2019-02-27T07:37:17.485Z,102609.44
2019-02-27T07:40:45.405Z,102621.68
2019-02-27T07:44:13.341Z,102613.9
2019-02-27T07:47:41.251Z,102612.06
2019-02-27T07:51:09.202Z,102610.83
2019-02-27T07:54:37.150Z,102609.92
2019-02-27T07:58:05.078Z,102610.48
2019-02-27T08:01:32.981Z,102606.53
2019-02-27T08:05:04.869Z,102605.64
2019-02-27T08:08:32.805Z,102593.82
2019-02-27T08:12:00.699Z,102599.53
2019-02-27T08:15:28.662Z,102593.85
2019-02-27T08:18:56.590Z,102591
2019-02-27T08:22:25.470Z,102598.26
2019-02-27T08:25:53.392Z,102596.74
2019-02-27T08:29:21.328Z,102598.56
2019-02-27T08:32:49.241Z,102589.32
2019-02-27T08:36:17.177Z,102591
2019-02-27T08:39:46.100Z,102593.79
2019-02-27T08:43:14.004Z,102593.73
2019-02-27T08:46:41.933Z,102587.84
2019-02-27T08:50:09.855Z,102588.68
2019-02-27T08:53:38.776Z,102573.46
2019-02-27T08:57:06.720Z,102567.57
2019-02-27T09:00:34.652Z,102564.37
2019-02-27T09:04:02.598Z,102564.92
2019-02-27T09:07:36.360Z,102548.35
2019-02-27T09:11:07.385Z,102551.07
2019-02-27T09:14:35.335Z,102536.31
2019-02-27T09:18:04.261Z,102534.34
2019-02-27T09:21:32.162Z,102529.81
2019-02-27T09:25:00.178Z,102514.84
2019-02-27T09:28:28.006Z,102511.23
2019-02-27T09:31:55.948Z,102521.64
2019-02-27T09:35:23.875Z,102520.93
2019-02-27T09:38:57.245Z,102513.98
2019-02-27T09:42:22.813Z,102520.18
2019-02-27T09:45:50.786Z,102521.39
2019-02-27T09:49:18.685Z,102516.6
2019-02-27T09:52:47.609Z,102507.96
2019-02-27T09:56:15.582Z,102507.7
2019-02-27T09:59:43.486Z,102498.54
2019-02-27T10:03:11.399Z,102505.96
2019-02-27T10:06:43.523Z,102501.59
2019-02-27T10:10:12.268Z,102504.01
2019-02-27T10:13:40.177Z,102505.59
2019-02-27T10:17:10.141Z,102496.03
2019-02-27T10:20:39.101Z,102495.93
2019-02-27T10:24:07.008Z,102480.46
2019-02-27T10:27:34.944Z,102465.51
2019-02-27T10:31:02.874Z,102461.72
2019-02-27T10:34:31.806Z,102450.79
2019-02-27T10:38:00.754Z,102453.75
2019-02-27T10:41:28.679Z,102450.75
2019-02-27T10:44:56.576Z,102434.27
2019-02-27T10:48:26.505Z,102426.65
2019-02-27T10:51:54.447Z,102415.45
2019-02-27T10:55:22.377Z,102412.38
2019-02-27T10:58:51.273Z,102416.68
2019-02-27T11:02:19.222Z,102403.84
2019-02-27T11:05:52.029Z,102410.14
2019-02-27T11:09:20.023Z,102400.29
2019-02-27T11:12:47.944Z,102397.93
2019-02-27T11:16:21.256Z,102410.62
2019-02-27T11:19:48.608Z,102386.93
2019-02-27T11:23:16.532Z,102383.48
2019-02-27T11:26:44.446Z,102367.34
2019-02-27T11:30:12.389Z,102369.75
2019-02-27T11:33:40.336Z,102369.25
2019-02-27T11:37:12.659Z,102381.26
2019-02-27T11:40:42.911Z,102384.75
2019-02-27T11:44:13.837Z,102373.91
2019-02-27T11:47:44.677Z,102363.76
2019-02-27T11:51:13.912Z,102356.59
2019-02-27T11:54:45.894Z,102354.51
2019-02-27T11:58:13.821Z,102351.27
2019-02-27T12:01:41.770Z,102347.71
2019-02-27T12:05:09.723Z,102336.29
2019-02-27T12:08:37.687Z,102334.71
2019-02-27T12:12:05.638Z,102329.25
2019-02-27T12:15:35.574Z,102333.64
2019-02-27T12:19:08.682Z,102318.69
2019-02-27T12:22:36.427Z,102320.78
2019-02-27T12:26:04.347Z,102296.93
2019-02-27T12:29:32.807Z,102296.09
2019-02-27T12:33:00.750Z,102296.81
2019-02-27T12:36:28.717Z,102292.32
2019-02-27T12:39:56.612Z,102301.78
2019-02-27T12:43:24.606Z,102288.47
2019-02-27T12:46:52.559Z,102273.92
2019-02-27T12:50:20.494Z,102271.72
2019-02-27T12:53:54.304Z,102261.01
2019-02-27T12:57:20.338Z,102254.6
2019-02-27T13:00:48.304Z,102251.75
2019-02-27T13:04:19.877Z,102246.37
2019-02-27T13:07:47.200Z,102227.03
2019-02-27T13:11:15.669Z,102236.15
2019-02-27T13:14:43.612Z,102234.37
2019-02-27T13:18:11.567Z,102224
2019-02-27T13:21:39.496Z,102215.81
2019-02-27T13:25:08.397Z,102210.95
2019-02-27T13:28:36.349Z,102208.02
2019-02-27T13:32:04.306Z,102212.57
2019-02-27T13:35:32.221Z,102213.04
2019-02-27T13:39:01.172Z,102201.93
2019-02-27T13:42:29.136Z,102215.42
2019-02-27T13:45:57.079Z,102200.51
2019-02-27T13:49:26.013Z,102212.45
2019-02-27T13:52:53.970Z,102186.57
2019-02-27T13:56:25.089Z,102178.1
2019-02-27T13:59:52.780Z,102172.12
2019-02-27T14:03:20.709Z,102171.56
2019-02-27T14:06:49.645Z,102152.34
2019-02-27T14:10:20.655Z,102151.06
2019-02-27T14:13:48.482Z,102147.07
2019-02-27T14:17:16.416Z,102131.28
2019-02-27T14:20:44.364Z,102120.8
2019-02-27T14:24:13.262Z,102115.09
2019-02-27T14:27:46.970Z,102104.38
2019-02-27T14:31:14.118Z,102091.77
2019-02-27T14:34:42.035Z,102090.07
2019-02-27T14:38:09.970Z,102087.9
2019-02-27T14:41:37.910Z,102084.07
2019-02-27T14:45:06.865Z,102080.89
2019-02-27T14:48:34.792Z,102070.26
2019-02-27T14:52:04.731Z,102077.23
2019-02-27T14:55:35.919Z,102056.6
2019-02-27T14:59:02.593Z,102058.06
2019-02-27T15:02:30.543Z,102053.4
2019-02-27T15:05:59.542Z,102052.59
2019-02-27T15:09:27.476Z,102034.31
2019-02-27T15:12:57.402Z,102018.17
2019-02-27T15:16:25.353Z,102003.54
2019-02-27T15:19:53.288Z,102005.46
2019-02-27T15:23:24.462Z,102006.52
2019-02-27T15:26:53.170Z,101990.21
2019-02-27T15:30:21.357Z,101978.67
2019-02-27T15:33:49.072Z,101971.22
2019-02-27T15:37:18.014Z,101976.31
2019-02-27T15:40:45.941Z,101981.01
2019-02-27T15:44:14.867Z,101979.45
2019-02-27T15:47:42.841Z,101968.74
2019-02-27T15:51:10.766Z,101971.06
2019-02-27T15:54:38.685Z,101965.46
2019-02-27T15:58:06.611Z,101958.81
2019-02-27T16:01:34.528Z,101964.07
2019-02-27T16:05:02.452Z,101952.06
2019-02-27T16:08:30.401Z,101949.85
2019-02-27T16:11:58.322Z,101939.45
2019-02-27T16:15:27.397Z,101938.22
2019-02-27T16:18:55.326Z,101932.42
2019-02-27T16:22:23.231Z,101931.15
2019-02-27T16:25:56.627Z,101919.42
2019-02-27T16:29:25.029Z,101915.29
2019-02-27T16:32:52.990Z,101911.36
2019-02-27T16:36:20.920Z,101904.34
2019-02-27T16:39:50.821Z,101911.81
2019-02-27T16:43:19.730Z,101893.51
2019-02-27T16:46:47.659Z,101878.62
2019-02-27T16:50:15.568Z,101868.34
2019-02-27T16:53:45.514Z,101866.49
2019-02-27T16:57:20.505Z,101850.32
2019-02-27T17:00:48.337Z,101847.32
2019-02-27T17:04:19.224Z,101843.7
2019-02-27T17:07:47.176Z,101837.31
2019-02-27T17:11:22.143Z,101838.48
2019-02-27T17:14:51.048Z,101838.35
2019-02-27T17:18:27.820Z,101830.98
2019-02-27T17:21:58.321Z,101825.62
2019-02-27T17:25:28.568Z,101814.57
2019-02-27T17:28:54.794Z,101808.26
2019-02-27T17:32:22.762Z,101806.98
2019-02-27T17:35:58.375Z,101809.45
2019-02-27T17:39:30.435Z,101798.48
2019-02-27T17:42:56.634Z,101783.06
2019-02-27T17:46:24.594Z,101771.92
2019-02-27T17:49:52.536Z,101752.23
2019-02-27T17:53:23.536Z,101742.07
2019-02-27T17:56:52.578Z,101740.71
2019-02-27T18:00:20.590Z,101730.54
2019-02-27T18:03:48.529Z,101715.64
2019-02-27T18:07:17.438Z,101715.14
2019-02-27T18:10:45.381Z,101699.06
2019-02-27T18:14:13.292Z,101683.99
2019-02-27T18:17:41.816Z,101666.49
2019-02-27T18:21:09.774Z,101664.16
2019-02-27T18:24:37.734Z,101661.63
2019-02-27T18:28:05.699Z,101667.7
2019-02-27T18:31:33.636Z,101662.09
2019-02-27T18:35:01.584Z,101662.18
2019-02-27T18:38:30.495Z,101650.14
2019-02-27T18:41:58.455Z,101652.8
2019-02-27T18:45:26.406Z,101649.09
2019-02-27T18:48:55.307Z,101638.14
2019-02-27T18:52:23.252Z,101625.29
2019-02-27T18:55:51.181Z,101621.29
2019-02-27T18:59:19.093Z,101620.96
2019-02-27T19:02:47.128Z,101610.09
2019-02-27T19:06:17.053Z,101614.15
2019-02-27T19:09:46.898Z,101606.56
2019-02-27T19:13:14.649Z,101605.22
2019-02-27T19:16:42.602Z,101591.96
2019-02-27T19:20:10.543Z,101580.65
2019-02-27T19:23:40.484Z,101585.57
2019-02-27T19:27:08.399Z,101567.5
2019-02-27T19:30:38.665Z,101568.28
2019-02-27T19:34:10.958Z,101556.6
2019-02-27T19:37:39.873Z,101555.82
2019-02-27T19:41:07.786Z,101549.77
2019-02-27T19:44:35.712Z,101544.92
2019-02-27T19:48:03.677Z,101538.64
2019-02-27T19:51:32.590Z,101534.92
2019-02-27T19:55:00.513Z,101530.48
2019-02-27T19:58:28.436Z,101533.49
2019-02-27T20:01:56.371Z,101529.73
2019-02-27T20:05:24.294Z,101527.64
2019-02-27T20:08:52.208Z,101518.04
2019-02-27T20:12:20.178Z,101513.78
2019-02-27T20:15:49.979Z,101514.03
2019-02-27T20:19:22.269Z,101504
2019-02-27T20:22:54.757Z,101498.65
2019-02-27T20:26:24.668Z,101491.47
2019-02-27T20:29:52.290Z,101480.98
2019-02-27T20:33:22.257Z,101471.28
2019-02-27T20:36:50.365Z,101463.48
2019-02-27T20:40:19.378Z,101456.53
2019-02-27T20:43:48.552Z,101446.8
2019-02-27T20:47:16.461Z,101432.43
2019-02-27T20:50:46.412Z,101416.26
2019-02-27T20:54:14.310Z,101413.31
2019-02-27T20:57:43.613Z,101401.64
2019-02-27T21:01:13.900Z,101391.23
2019-02-27T21:04:41.767Z,101392.56
2019-02-27T21:08:09.793Z,101386.15
2019-02-27T21:11:37.702Z,101385.57
2019-02-27T21:15:06.540Z,101380.94
2019-02-27T21:18:36.157Z,101383.55
2019-02-27T21:22:04.409Z,101387.9
2019-02-27T21:25:34.314Z,101381.82
2019-02-27T21:29:05.170Z,101372.51
2019-02-27T21:32:37.035Z,101370.42
2019-02-27T21:36:05.352Z,101365.81
2019-02-27T21:39:33.359Z,101362.46
2019-02-27T21:43:01.332Z,101359.15
2019-02-27T21:46:30.001Z,101355.54
2019-02-27T21:49:58.962Z,101353.81
2019-02-27T21:53:30.905Z,101349.89
2019-02-27T21:56:58.827Z,101337.07
2019-02-27T22:00:26.802Z,101336.46
2019-02-27T22:03:54.760Z,101326.09
2019-02-27T22:07:22.725Z,101319.37
2019-02-27T22:10:53.527Z,101317.34
2019-02-27T22:14:21.659Z,101306.97
2019-02-27T22:17:49.625Z,101300.28
2019-02-27T22:21:17.567Z,101289.12
2019-02-27T22:24:46.440Z,101284.32
2019-02-27T22:28:19.925Z,101273.89
2019-02-27T22:31:47.948Z,101269.78
2019-02-27T22:35:15.931Z,101263.37
2019-02-27T22:38:43.945Z,101254.23
2019-02-27T22:42:15.373Z,101240.1
2019-02-27T22:45:44.817Z,101238.98
2019-02-27T22:49:13.736Z,101225.53
2019-02-27T22:52:41.659Z,101213.17
2019-02-27T22:56:09.611Z,101211.75
2019-02-27T22:59:40.517Z,101209.85
